createdAt,value
2022-10-17T00:04:43.539Z,88
2022-10-17T00:19:59.550Z,92.5
2022-10-17T00:35:16.505Z,95.5
2022-10-17T00:50:32.499Z,96
2022-10-17T01:05:49.471Z,98.5
2022-10-17T01:21:06.441Z,100
2022-10-17T01:36:23.409Z,100
2022-10-17T01:51:39.396Z,100
2022-10-17T02:06:55.353Z,100
2022-10-17T02:22:11.331Z,100
2022-10-17T02:37:28.510Z,100
2022-10-17T02:52:45.272Z,100
2022-10-17T03:08:02.256Z,100
2022-10-17T03:23:19.236Z,100
2022-10-17T03:38:36.196Z,100
2022-10-17T03:53:52.141Z,100
2022-10-17T04:09:08.153Z,100
2022-10-17T04:24:25.094Z,100
2022-10-17T04:39:41.092Z,100
2022-10-17T04:54:58.034Z,100
2022-10-17T05:10:15.058Z,100
2022-10-17T05:25:31.989Z,100
2022-10-17T05:40:47.997Z,100
2022-10-17T05:56:03.929Z,100
2022-10-17T06:11:19.955Z,100
2022-10-17T06:26:36.867Z,100
2022-10-17T06:41:53.881Z,100
2022-10-17T06:57:10.824Z,100
2022-10-17T07:12:27.838Z,100
2022-10-17T07:27:44.763Z,91
2022-10-17T07:43:00.770Z,86
2022-10-17T07:58:16.711Z,82.5
2022-10-17T08:13:32.719Z,79.5
2022-10-17T08:28:49.779Z,76.5
2022-10-17T08:44:06.628Z,76
2022-10-17T08:59:23.636Z,77.5
2022-10-17T09:14:39.568Z,74
2022-10-17T09:29:56.553Z,74
2022-10-17T09:45:12.512Z,67.5
2022-10-17T10:00:28.564Z,66
2022-10-17T10:15:44.444Z,64
2022-10-17T10:31:02.408Z,63.5
2022-10-17T10:46:19.380Z,64
2022-10-17T11:01:36.324Z,63.5
2022-10-17T11:02:21.244Z,63.5
2022-10-17T11:16:53.322Z,60.5
2022-10-17T11:32:10.257Z,55.5
2022-10-17T11:47:27.218Z,52.5
2022-10-17T12:02:44.186Z,51.5
2022-10-17T12:18:00.160Z,53
2022-10-17T12:33:17.118Z,48.5
2022-10-17T12:48:33.113Z,46.5
2022-10-17T13:03:49.051Z,49
2022-10-17T13:19:05.057Z,47
2022-10-17T13:34:23.978Z,45
2022-10-17T13:49:39.988Z,44
2022-10-17T14:05:16.325Z,46
2022-10-17T14:20:40.703Z,47.5
2022-10-17T14:35:41.434Z,46
2022-10-17T14:50:47.882Z,46.5
2022-10-17T15:06:03.813Z,50
2022-10-17T15:21:33.626Z,50
2022-10-17T15:36:36.740Z,52.5
2022-10-17T15:51:55.157Z,55
2022-10-17T16:07:09.771Z,59.5
2022-10-17T16:22:26.827Z,62
2022-10-17T16:37:43.621Z,64.5
2022-10-17T16:52:59.613Z,66.5
2022-10-17T17:08:15.610Z,67
2022-10-17T17:23:31.521Z,66.5
2022-10-17T17:38:48.534Z,68.5
2022-10-17T17:54:04.469Z,72.5
2022-10-17T18:09:21.465Z,76
2022-10-17T18:24:38.396Z,81
2022-10-17T18:39:57.417Z,85
2022-10-17T18:55:13.341Z,88
2022-10-17T19:10:29.339Z,89
2022-10-17T19:25:45.269Z,90.5
2022-10-17T19:41:02.295Z,92
2022-10-17T19:56:19.221Z,92.5
2022-10-17T20:11:36.208Z,95.5
2022-10-17T20:26:52.156Z,97.5
2022-10-17T20:42:09.165Z,100
2022-10-17T20:57:25.100Z,100
2022-10-17T21:12:53.201Z,100
2022-10-17T21:27:57.053Z,100
2022-10-17T21:43:15.043Z,100
2022-10-17T21:58:31.011Z,100
2022-10-17T22:13:46.958Z,100
2022-10-17T22:29:03.066Z,100
2022-10-17T22:44:22.885Z,100
2022-10-17T22:59:38.900Z,100
2022-10-17T23:14:54.834Z,100
2022-10-17T23:30:11.819Z,100
2022-10-17T23:45:33.415Z,100
